createdAt,value
2023-02-24T00:02:06.234Z,92.51
2023-02-24T00:04:40.429Z,93.94
2023-02-24T00:07:10.741Z,94.21
2023-02-24T00:09:39.620Z,94.48
2023-02-24T00:12:14.008Z,95.38
2023-02-24T00:14:45.180Z,95.56
2023-02-24T00:17:17.173Z,95.56
2023-02-24T00:19:46.636Z,95.20
2023-02-24T00:22:14.927Z,94.65
2023-02-24T00:24:42.779Z,95.37
2023-02-24T00:27:13.655Z,95.61
2023-02-24T00:29:46.208Z,94.60
2023-02-24T00:32:15.163Z,93.58
2023-02-24T00:34:43.624Z,93.14
2023-02-24T00:37:12.358Z,92.76
2023-02-24T00:39:41.997Z,92.86
2023-02-24T00:42:12.243Z,92.98
2023-02-24T00:44:44.422Z,93.12
2023-02-24T00:47:16.501Z,93.07
2023-02-24T00:49:44.871Z,92.77
2023-02-24T00:52:20.074Z,92.05
2023-02-24T00:54:49.929Z,90.94
2023-02-24T00:57:20.609Z,90.35
2023-02-24T00:59:51.603Z,90.43
2023-02-24T01:02:20.753Z,90.57
2023-02-24T01:04:50.151Z,90.58
2023-02-24T01:07:18.431Z,92.72
2023-02-24T01:09:46.480Z,92.70
2023-02-24T01:12:33.798Z,92.32
2023-02-24T01:15:03.375Z,92.90
2023-02-24T01:17:31.874Z,93.74
2023-02-24T01:20:01.441Z,93.05
2023-02-24T01:22:30.673Z,93.25
2023-02-24T01:24:58.952Z,93.78
2023-02-24T01:27:27.202Z,92.68
2023-02-24T01:29:55.051Z,93.39
2023-02-24T01:32:25.683Z,93.12
2023-02-24T01:34:53.823Z,93.58
2023-02-24T01:37:22.317Z,94.15
2023-02-24T01:39:50.605Z,92.99
2023-02-24T01:42:21.491Z,93.94
2023-02-24T01:44:52.354Z,94.33
2023-02-24T01:47:22.801Z,94.04
2023-02-24T01:49:54.413Z,93.95
2023-02-24T01:52:26.846Z,95.00
2023-02-24T01:55:20.384Z,95.42
2023-02-24T01:57:51.997Z,95.84
2023-02-24T02:00:40.591Z,94.69
2023-02-24T02:03:19.838Z,94.24
2023-02-24T02:05:48.964Z,93.83
2023-02-24T02:08:18.799Z,94.04
2023-02-24T02:10:47.231Z,94.57
2023-02-24T02:13:21.927Z,93.90
2023-02-24T02:15:59.679Z,93.76
2023-02-24T02:18:48.046Z,91.85
2023-02-24T02:21:55.341Z,91.80
2023-02-24T02:24:40.348Z,91.31
2023-02-24T02:27:33.367Z,92.78
2023-02-24T02:30:17.814Z,92.86
2023-02-24T02:32:52.705Z,93.47
2023-02-24T02:35:37.308Z,92.76
2023-02-24T02:38:26.222Z,93.33
2023-02-24T02:41:23.977Z,93.41
2023-02-24T02:43:57.286Z,93.98
2023-02-24T02:46:35.107Z,94.29
2023-02-24T02:49:24.628Z,95.53
2023-02-24T02:51:59.914Z,95.81
2023-02-24T02:54:50.095Z,96.98
2023-02-24T02:57:28.321Z,95.63
2023-02-24T03:00:14.299Z,94.52
2023-02-24T03:02:47.346Z,95.40
2023-02-24T03:05:20.791Z,95.18
2023-02-24T03:07:53.531Z,95.48
2023-02-24T03:10:28.201Z,95.58
2023-02-24T03:13:01.105Z,93.39
2023-02-24T03:15:33.808Z,93.25
2023-02-24T03:18:10.680Z,92.78
2023-02-24T03:21:29.522Z,92.59
2023-02-24T03:23:57.942Z,92.65
2023-02-24T03:26:50.047Z,93.48
2023-02-24T03:29:27.655Z,94.43
2023-02-24T03:32:09.586Z,93.69
2023-02-24T03:35:04.854Z,93.16
2023-02-24T03:37:34.483Z,92.36
2023-02-24T03:40:14.953Z,93.29
2023-02-24T03:42:51.104Z,94.13
2023-02-24T03:45:23.016Z,92.78
2023-02-24T03:47:54.380Z,92.78
2023-02-24T03:50:23.470Z,93.41
2023-02-24T03:53:08.488Z,93.62
2023-02-24T03:56:05.202Z,93.74
2023-02-24T03:59:05.372Z,93.88
2023-02-24T04:01:58.272Z,93.48
2023-02-24T04:04:48.775Z,94.16
2023-02-24T04:07:41.562Z,94.68
2023-02-24T04:10:34.502Z,94.75
2023-02-24T04:13:05.002Z,94.69
2023-02-24T04:15:44.599Z,93.56
2023-02-24T04:18:13.934Z,92.94
2023-02-24T04:20:45.775Z,93.65
2023-02-24T04:23:18.660Z,93.65
2023-02-24T04:25:52.038Z,93.59
2023-02-24T04:28:23.640Z,94.54
2023-02-24T04:31:00.986Z,94.63
2023-02-24T04:33:29.617Z,94.66
2023-02-24T04:35:57.815Z,93.66
2023-02-24T04:38:28.176Z,94.27
2023-02-24T04:40:57.698Z,93.50
2023-02-24T04:43:26.109Z,93.48
2023-02-24T04:45:56.006Z,93.16
2023-02-24T04:48:24.358Z,93.13
2023-02-24T04:50:55.551Z,92.94
2023-02-24T04:53:27.537Z,92.90
2023-02-24T04:55:56.526Z,93.29
2023-02-24T04:58:29.637Z,92.47
2023-02-24T05:00:57.662Z,92.29
2023-02-24T05:03:29.312Z,92.48
2023-02-24T05:06:02.218Z,91.98
2023-02-24T05:08:31.411Z,91.16
2023-02-24T05:11:04.125Z,91.54
2023-02-24T05:13:34.094Z,91.97
2023-02-24T05:16:08.877Z,91.66
2023-02-24T05:18:37.573Z,91.45
2023-02-24T05:21:27.079Z,91.98
2023-02-24T05:23:58.407Z,91.25
2023-02-24T05:26:27.294Z,91.46
2023-02-24T05:28:56.795Z,90.79
2023-02-24T05:31:28.539Z,92.17
2023-02-24T05:34:03.380Z,90.70
2023-02-24T05:36:35.052Z,92.24
2023-02-24T05:39:07.856Z,91.88
2023-02-24T05:41:39.064Z,91.44
2023-02-24T05:44:13.641Z,92.20
2023-02-24T05:46:44.941Z,91.72
2023-02-24T05:49:20.962Z,92.63
2023-02-24T05:51:57.553Z,92.78
2023-02-24T05:54:31.650Z,91.37
2023-02-24T05:57:09.470Z,90.77
2023-02-24T05:59:39.406Z,91.70
2023-02-24T06:02:11.650Z,92.55
2023-02-24T06:04:51.666Z,91.43
2023-02-24T06:07:25.119Z,91.48
2023-02-24T06:09:57.489Z,92.57
2023-02-24T06:12:28.573Z,91.99
2023-02-24T06:15:00.245Z,91.38
2023-02-24T06:17:28.619Z,91.13
2023-02-24T06:19:57.206Z,91.40
2023-02-24T06:22:26.914Z,91.56
2023-02-24T06:24:57.266Z,92.11
2023-02-24T06:27:25.736Z,90.59
2023-02-24T06:29:55.211Z,91.17
2023-02-24T06:32:26.814Z,91.80
2023-02-24T06:34:55.655Z,92.64
2023-02-24T06:37:23.638Z,91.50
2023-02-24T06:39:52.151Z,94.38
2023-02-24T06:42:20.134Z,95.61
2023-02-24T06:44:49.134Z,95.00
2023-02-24T06:47:18.272Z,93.16
2023-02-24T06:49:46.585Z,94.24
2023-02-24T06:52:19.318Z,95.49
2023-02-24T06:54:49.754Z,96.52
2023-02-24T06:57:18.079Z,96.22
2023-02-24T06:59:46.555Z,96.12
2023-02-24T07:02:14.592Z,95.77
2023-02-24T07:04:45.656Z,93.99
2023-02-24T07:07:17.772Z,96.37
2023-02-24T07:09:46.284Z,94.99
2023-02-24T07:12:15.848Z,95.81
2023-02-24T07:14:44.303Z,96.40
2023-02-24T07:17:14.954Z,95.63
2023-02-24T07:19:44.494Z,96.52
2023-02-24T07:22:14.907Z,98.52
2023-02-24T07:24:46.611Z,97.14
2023-02-24T07:27:23.379Z,96.85
2023-02-24T07:29:53.181Z,95.97
2023-02-24T07:32:23.320Z,93.81
2023-02-24T07:34:51.889Z,93.08
2023-02-24T07:37:20.846Z,93.93
2023-02-24T07:39:49.250Z,94.87
2023-02-24T07:42:17.396Z,95.31
2023-02-24T07:44:49.409Z,94.11
2023-02-24T07:47:17.899Z,93.07
2023-02-24T07:49:46.813Z,95.35
2023-02-24T07:52:16.612Z,95.57
2023-02-24T07:54:45.599Z,96.45
2023-02-24T07:57:14.404Z,96.83
2023-02-24T07:59:45.706Z,94.44
2023-02-24T08:02:14.067Z,95.54
2023-02-24T08:04:50.629Z,94.85
2023-02-24T08:07:25.213Z,94.70
2023-02-24T08:10:12.441Z,94.34
2023-02-24T08:12:44.989Z,95.04
2023-02-24T08:15:24.398Z,93.34
2023-02-24T08:17:57.422Z,93.14
2023-02-24T08:20:52.652Z,93.41
2023-02-24T08:23:23.736Z,92.68
2023-02-24T08:25:54.069Z,91.45
2023-02-24T08:28:27.109Z,93.58
2023-02-24T08:30:56.013Z,93.99
2023-02-24T08:33:24.197Z,93.51
2023-02-24T08:36:01.687Z,92.03
2023-02-24T08:38:40.262Z,92.60
2023-02-24T08:41:18.669Z,92.18
2023-02-24T08:43:48.801Z,90.69
2023-02-24T08:46:27.070Z,90.79
2023-02-24T08:48:58.245Z,92.08
2023-02-24T08:51:35.345Z,92.12
2023-02-24T08:54:15.593Z,91.89
2023-02-24T08:56:49.955Z,91.75
2023-02-24T08:59:38.340Z,94.43
2023-02-24T09:02:18.934Z,93.83
2023-02-24T09:04:49.686Z,93.02
2023-02-24T09:07:25.676Z,95.52
2023-02-24T09:09:57.375Z,95.77
2023-02-24T09:12:29.393Z,95.08
2023-02-24T09:15:05.053Z,93.34
2023-02-24T09:17:46.438Z,93.03
2023-02-24T09:20:36.185Z,92.95
2023-02-24T09:23:06.353Z,94.72
2023-02-24T09:25:41.134Z,93.34
2023-02-24T09:28:17.388Z,93.14
2023-02-24T09:31:17.349Z,92.96
2023-02-24T09:33:51.366Z,93.68
2023-02-24T09:36:20.716Z,93.33
2023-02-24T09:39:00.982Z,91.27
2023-02-24T09:41:54.141Z,91.15
2023-02-24T09:44:39.681Z,91.31
2023-02-24T09:47:57.186Z,91.08
2023-02-24T09:51:04.245Z,91.38
2023-02-24T09:53:49.570Z,92.02
2023-02-24T09:56:25.893Z,95.45
2023-02-24T09:59:15.315Z,94.25
2023-02-24T10:01:46.616Z,96.14
2023-02-24T10:04:34.062Z,96.51
2023-02-24T10:07:30.652Z,97.24
2023-02-24T10:10:20.467Z,97.36
2023-02-24T10:13:14.393Z,93.21
2023-02-24T10:15:58.506Z,90.06
2023-02-24T10:18:31.995Z,89.24
2023-02-24T10:21:48.505Z,87.45
2023-02-24T10:24:29.699Z,87.00
2023-02-24T10:27:27.524Z,86.50
2023-02-24T10:30:20.020Z,83.24
2023-02-24T10:33:05.649Z,83.71
2023-02-24T10:35:34.452Z,84.22
2023-02-24T10:38:06.153Z,84.41
2023-02-24T10:40:45.320Z,81.94
2023-02-24T10:43:30.346Z,81.66
2023-02-24T10:46:06.473Z,83.68
2023-02-24T10:48:42.501Z,81.96
2023-02-24T10:51:20.744Z,82.33
2023-02-24T10:54:13.385Z,82.47
2023-02-24T10:56:55.553Z,83.91
2023-02-24T10:59:49.860Z,84.06
2023-02-24T11:02:33.111Z,81.97
2023-02-24T11:05:27.423Z,82.83
2023-02-24T11:08:33.623Z,83.38
2023-02-24T11:11:07.465Z,83.23
2023-02-24T11:13:56.024Z,81.24
2023-02-24T11:16:42.479Z,76.69
2023-02-24T11:19:11.549Z,76.26
2023-02-24T11:21:39.619Z,75.67
2023-02-24T11:24:18.450Z,75.39
2023-02-24T11:26:47.004Z,74.21
2023-02-24T11:29:27.333Z,76.13
2023-02-24T11:32:01.992Z,75.50
2023-02-24T11:35:18.348Z,75.63
2023-02-24T11:38:06.429Z,76.27
2023-02-24T11:40:42.148Z,75.74
2023-02-24T11:43:18.772Z,74.37
2023-02-24T11:45:52.781Z,74.51
2023-02-24T11:48:32.407Z,74.22
2023-02-24T11:51:11.242Z,70.64
2023-02-24T11:53:42.122Z,67.68
2023-02-24T11:56:22.360Z,67.16
2023-02-24T11:59:25.397Z,72.88
2023-02-24T12:02:22.056Z,72.12
2023-02-24T12:05:03.905Z,68.78
2023-02-24T12:07:42.802Z,69.78
2023-02-24T12:10:20.589Z,67.64
2023-02-24T12:13:11.440Z,70.47
2023-02-24T12:15:46.991Z,72.06
2023-02-24T12:18:39.529Z,70.30
2023-02-24T12:21:10.475Z,66.85
2023-02-24T12:23:44.886Z,63.44
2023-02-24T12:26:40.078Z,62.70
2023-02-24T12:29:08.431Z,64.13
2023-02-24T12:31:41.927Z,63.35
2023-02-24T12:34:23.675Z,60.41
2023-02-24T12:37:30.592Z,58.28
2023-02-24T12:40:01.680Z,56.45
2023-02-24T12:42:29.531Z,58.60
2023-02-24T12:45:26.449Z,61.35
2023-02-24T12:48:12.301Z,64.53
2023-02-24T12:50:49.297Z,63.29
2023-02-24T12:53:43.551Z,64.53
2023-02-24T12:56:27.900Z,63.66
2023-02-24T12:59:05.752Z,64.05
2023-02-24T13:01:51.931Z,62.94
2023-02-24T13:04:48.397Z,64.11
2023-02-24T13:07:32.383Z,63.30
2023-02-24T13:10:06.376Z,61.06
2023-02-24T13:12:57.256Z,60.79
2023-02-24T13:15:31.671Z,56.69
2023-02-24T13:18:00.476Z,58.10
2023-02-24T13:20:30.246Z,58.37
2023-02-24T13:23:00.434Z,56.62
2023-02-24T13:25:37.483Z,56.22
2023-02-24T13:28:26.252Z,59.69
2023-02-24T13:31:04.282Z,58.54
2023-02-24T13:33:36.329Z,57.16
2023-02-24T13:36:22.001Z,59.67
2023-02-24T13:39:06.687Z,60.41
2023-02-24T13:41:41.151Z,57.92
2023-02-24T13:44:29.207Z,58.18
2023-02-24T13:47:29.471Z,61.53
2023-02-24T13:50:27.225Z,63.28
2023-02-24T13:53:24.203Z,63.83
2023-02-24T13:55:58.599Z,62.22
2023-02-24T13:58:40.317Z,62.73
2023-02-24T14:01:18.752Z,62.28
2023-02-24T14:04:22.914Z,61.27
2023-02-24T14:06:58.182Z,60.04
2023-02-24T14:09:32.972Z,62.30
2023-02-24T14:12:08.314Z,61.00
2023-02-24T14:14:36.863Z,60.42
2023-02-24T14:17:05.239Z,62.32
2023-02-24T14:19:33.264Z,61.10
2023-02-24T14:22:02.540Z,62.21
2023-02-24T14:24:30.541Z,61.80
2023-02-24T14:26:59.795Z,63.47
2023-02-24T14:29:32.400Z,62.17
2023-02-24T14:32:01.623Z,63.01
2023-02-24T14:34:32.693Z,63.45
2023-02-24T14:37:04.232Z,63.97
2023-02-24T14:39:34.476Z,62.86
2023-02-24T14:42:09.760Z,62.36
2023-02-24T14:44:47.902Z,65.21
2023-02-24T14:47:18.659Z,65.91
2023-02-24T14:49:57.394Z,65.87
2023-02-24T14:52:36.828Z,66.35
2023-02-24T14:55:26.712Z,66.54
2023-02-24T14:58:06.959Z,65.23
2023-02-24T15:00:49.152Z,66.07
2023-02-24T15:03:29.494Z,63.88
2023-02-24T15:06:04.915Z,65.13
2023-02-24T15:08:46.891Z,63.75
2023-02-24T15:11:17.530Z,64.22
2023-02-24T15:13:59.332Z,65.70
2023-02-24T15:16:33.959Z,65.92
2023-02-24T15:19:02.464Z,66.42
2023-02-24T15:21:39.490Z,66.51
2023-02-24T15:24:19.661Z,64.94
2023-02-24T15:26:59.998Z,65.36
2023-02-24T15:29:30.949Z,65.96
2023-02-24T15:32:01.089Z,66.38
2023-02-24T15:34:32.897Z,65.49
2023-02-24T15:37:15.087Z,65.06
2023-02-24T15:39:44.635Z,65.56
2023-02-24T15:42:28.661Z,65.79
2023-02-24T15:45:23.441Z,65.39
2023-02-24T15:47:54.746Z,65.39
2023-02-24T15:50:24.056Z,66.13
2023-02-24T15:52:52.156Z,65.25
2023-02-24T15:55:22.205Z,64.41
2023-02-24T15:58:01.567Z,65.33
2023-02-24T16:00:31.542Z,65.35
2023-02-24T16:02:59.507Z,64.40
2023-02-24T16:05:27.970Z,65.25
2023-02-24T16:07:56.463Z,65.85
2023-02-24T16:10:27.834Z,65.85
2023-02-24T16:13:01.687Z,66.86
2023-02-24T16:15:38.112Z,66.98
2023-02-24T16:18:20.985Z,67.54
2023-02-24T16:20:57.120Z,67.51
2023-02-24T16:23:26.625Z,67.69
2023-02-24T16:25:58.455Z,67.29
2023-02-24T16:28:27.336Z,67.43
2023-02-24T16:30:55.671Z,67.43
2023-02-24T16:33:24.275Z,68.40
2023-02-24T16:35:55.819Z,68.07
2023-02-24T16:38:27.122Z,69.39
2023-02-24T16:40:56.092Z,69.84
2023-02-24T16:43:24.949Z,70.29
2023-02-24T16:45:55.758Z,70.26
2023-02-24T16:48:26.667Z,70.11
2023-02-24T16:50:55.714Z,72.02
2023-02-24T16:53:24.845Z,72.34
2023-02-24T16:55:53.722Z,72.51
2023-02-24T16:58:23.629Z,72.28
2023-02-24T17:00:55.650Z,72.53
2023-02-24T17:03:30.860Z,73.69
2023-02-24T17:05:59.399Z,74.44
2023-02-24T17:08:27.379Z,75.35
2023-02-24T17:10:56.479Z,74.95
2023-02-24T17:13:24.379Z,75.88
2023-02-24T17:15:57.632Z,76.64
2023-02-24T17:18:27.131Z,76.25
2023-02-24T17:20:55.743Z,75.53
2023-02-24T17:23:24.047Z,75.24
2023-02-24T17:25:56.256Z,75.58
2023-02-24T17:28:24.432Z,76.00
2023-02-24T17:30:52.898Z,77.11
2023-02-24T17:33:21.085Z,77.02
2023-02-24T17:35:49.836Z,77.25
2023-02-24T17:38:21.678Z,77.49
2023-02-24T17:40:49.940Z,77.78
2023-02-24T17:43:18.137Z,78.24
2023-02-24T17:45:47.539Z,78.81
2023-02-24T17:48:16.209Z,78.34
2023-02-24T17:50:46.548Z,78.48
2023-02-24T17:53:15.627Z,78.24
2023-02-24T17:56:01.006Z,79.80
2023-02-24T17:58:30.253Z,80.39
2023-02-24T18:00:58.757Z,79.15
2023-02-24T18:03:26.778Z,78.60
2023-02-24T18:06:07.915Z,79.40
2023-02-24T18:08:37.106Z,80.28
2023-02-24T18:11:06.877Z,80.15
2023-02-24T18:13:34.919Z,78.68
2023-02-24T18:16:08.929Z,78.85
2023-02-24T18:18:37.359Z,77.98
2023-02-24T18:21:08.931Z,80.54
2023-02-24T18:23:40.423Z,80.04
2023-02-24T18:26:11.152Z,80.02
2023-02-24T18:28:39.636Z,79.97
2023-02-24T18:31:19.358Z,79.99
2023-02-24T18:33:47.730Z,80.36
2023-02-24T18:36:16.993Z,80.67
2023-02-24T18:38:45.392Z,79.98
2023-02-24T18:41:17.280Z,79.44
2023-02-24T18:43:49.458Z,79.15
2023-02-24T18:46:18.856Z,78.28
2023-02-24T18:48:47.694Z,77.82
2023-02-24T18:51:18.522Z,78.97
2023-02-24T18:53:47.263Z,78.68
2023-02-24T18:56:19.716Z,79.95
2023-02-24T18:58:50.074Z,79.90
2023-02-24T19:01:25.520Z,79.51
2023-02-24T19:03:55.565Z,78.84
2023-02-24T19:06:27.093Z,79.19
2023-02-24T19:09:12.711Z,77.92
2023-02-24T19:11:41.935Z,78.11
2023-02-24T19:14:12.092Z,77.43
2023-02-24T19:16:41.295Z,77.46
2023-02-24T19:19:16.266Z,77.18
2023-02-24T19:21:45.756Z,77.71
2023-02-24T19:24:14.200Z,78.12
2023-02-24T19:26:44.571Z,78.64
2023-02-24T19:29:12.648Z,79.06
2023-02-24T19:31:41.266Z,78.45
2023-02-24T19:34:13.156Z,78.52
2023-02-24T19:36:41.474Z,78.52
2023-02-24T19:39:12.633Z,78.35
2023-02-24T19:41:41.403Z,78.15
2023-02-24T19:44:10.696Z,78.81
2023-02-24T19:46:39.232Z,77.71
2023-02-24T19:49:07.447Z,77.91
2023-02-24T19:51:35.927Z,77.54
2023-02-24T19:54:06.379Z,77.69
2023-02-24T19:56:36.867Z,77.32
2023-02-24T19:59:06.943Z,77.56
2023-02-24T20:01:35.322Z,78.47
2023-02-24T20:04:04.133Z,77.59
2023-02-24T20:06:35.973Z,77.20
2023-02-24T20:09:15.291Z,78.01
2023-02-24T20:11:45.532Z,77.70
2023-02-24T20:14:17.040Z,77.75
2023-02-24T20:16:46.119Z,78.79
2023-02-24T20:19:15.445Z,78.82
2023-02-24T20:21:44.255Z,78.65
2023-02-24T20:24:15.709Z,79.57
2023-02-24T20:26:47.403Z,79.29
2023-02-24T20:29:17.016Z,79.25
2023-02-24T20:31:46.725Z,78.68
2023-02-24T20:34:17.208Z,78.65
2023-02-24T20:36:45.648Z,79.12
2023-02-24T20:39:13.912Z,78.80
2023-02-24T20:41:42.586Z,78.62
2023-02-24T20:44:12.023Z,78.29
2023-02-24T20:46:40.248Z,78.74
2023-02-24T20:49:12.015Z,78.78
2023-02-24T20:51:41.310Z,78.58
2023-02-24T20:54:11.538Z,78.45
2023-02-24T20:56:43.150Z,79.48
2023-02-24T20:59:16.890Z,79.34
2023-02-24T21:01:47.535Z,79.76
2023-02-24T21:04:18.527Z,79.72
2023-02-24T21:06:48.293Z,79.41
2023-02-24T21:09:16.604Z,79.43
2023-02-24T21:11:44.999Z,79.12
2023-02-24T21:14:15.809Z,79.67
2023-02-24T21:16:46.360Z,79.61
2023-02-24T21:19:14.921Z,79.90
2023-02-24T21:21:43.116Z,80.47
2023-02-24T21:24:10.892Z,80.11
2023-02-24T21:26:39.171Z,80.93
2023-02-24T21:29:07.223Z,81.83
2023-02-24T21:31:35.539Z,82.19
2023-02-24T21:34:04.022Z,82.14
2023-02-24T21:36:32.213Z,81.34
2023-02-24T21:39:01.087Z,81.49
2023-02-24T21:41:29.265Z,82.44
2023-02-24T21:43:57.246Z,82.69
2023-02-24T21:46:28.673Z,82.08
2023-02-24T21:49:00.468Z,81.66
2023-02-24T21:51:29.413Z,82.06
2023-02-24T21:53:58.107Z,82.85
2023-02-24T21:56:29.173Z,83.45
2023-02-24T21:59:03.414Z,82.31
2023-02-24T22:01:37.177Z,82.22
2023-02-24T22:04:08.218Z,83.78
2023-02-24T22:06:38.121Z,84.04
2023-02-24T22:09:08.014Z,84.57
2023-02-24T22:11:38.965Z,84.58
2023-02-24T22:14:09.015Z,85.36
2023-02-24T22:16:37.590Z,84.83
2023-02-24T22:19:05.772Z,85.04
2023-02-24T22:21:34.449Z,85.78
2023-02-24T22:24:03.315Z,85.70
2023-02-24T22:26:32.384Z,85.10
2023-02-24T22:29:00.804Z,85.06
2023-02-24T22:31:31.832Z,85.40
2023-02-24T22:34:00.429Z,85.67
2023-02-24T22:36:33.381Z,85.99
2023-02-24T22:39:01.889Z,85.79
2023-02-24T22:41:32.868Z,84.74
2023-02-24T22:44:05.169Z,84.00
2023-02-24T22:46:37.109Z,84.69
2023-02-24T22:49:05.995Z,84.94
2023-02-24T22:51:34.256Z,85.44
2023-02-24T22:54:02.282Z,85.89
2023-02-24T22:56:30.933Z,84.45
2023-02-24T22:58:59.386Z,83.65
2023-02-24T23:01:30.507Z,85.50
2023-02-24T23:04:03.791Z,85.40
2023-02-24T23:06:33.074Z,86.11
2023-02-24T23:09:02.134Z,86.29
2023-02-24T23:11:33.586Z,85.92
2023-02-24T23:14:04.133Z,86.37
2023-02-24T23:16:34.911Z,87.77
2023-02-24T23:19:07.489Z,87.13
2023-02-24T23:21:41.691Z,86.35
2023-02-24T23:24:11.422Z,86.52
2023-02-24T23:26:48.519Z,84.81
2023-02-24T23:29:17.977Z,86.57
2023-02-24T23:31:46.530Z,88.04
2023-02-24T23:34:15.021Z,88.02
2023-02-24T23:36:45.630Z,89.42
2023-02-24T23:39:16.359Z,89.47
2023-02-24T23:41:44.627Z,88.15
2023-02-24T23:44:12.867Z,89.18
2023-02-24T23:46:44.229Z,91.85
2023-02-24T23:49:11.983Z,91.62
2023-02-24T23:51:47.989Z,91.85
2023-02-24T23:54:18.224Z,93.20
2023-02-24T23:56:47.152Z,92.28
2023-02-24T23:59:15.311Z,93.62
